Time;durP1;ratioP1;P1;durP2;ratioP2;P2;SDS_P1;SDS_P2;PMS_P1;PMS_P2;Temp;Humidity;BMP_temperature;BMP_pressure;BME280_temperature;BME280_humidity;BME280_pressure;Samples;Min_cycle;Max_cycle;Signal;HPM_P1;HPM_P2
2024/04/05 00:02:18;;;;;;;1.67;1.23;;;18.80;62.30;;;;;;5004476;28;20213;-58
2024/04/05 00:04:44;;;;;;;1.73;1.53;;;18.90;62.50;;;;;;5004542;28;20571;-55
2024/04/05 00:07:10;;;;;;;3.80;1.70;;;18.80;62.50;;;;;;5012420;28;20464;-58
2024/04/05 00:09:35;;;;;;;3.70;1.60;;;18.40;63.40;;;;;;5014181;28;20982;-58
2024/04/05 00:12:01;;;;;;;2.27;1.77;;;18.50;63.90;;;;;;5020375;28;20194;-58
2024/04/05 00:14:26;;;;;;;4.37;1.60;;;18.60;63.50;;;;;;5009328;28;20194;-58
2024/04/05 00:16:52;;;;;;;5.33;1.70;;;18.70;63.50;;;;;;5005826;28;20224;-55
2024/04/05 00:19:17;;;;;;;3.50;1.50;;;18.60;64.20;;;;;;5006031;28;20245;-59
2024/04/05 00:21:44;;;;;;;2.50;1.30;;;18.70;63.80;;;;;;5004163;28;20220;-57
2024/04/05 00:24:09;;;;;;;2.10;1.50;;;18.80;63.40;;;;;;5008335;28;20190;-56
2024/04/05 00:26:36;;;;;;;1.90;1.23;;;18.90;63.40;;;;;;5004809;28;20488;-59
2024/04/05 00:29:02;;;;;;;5.30;2.17;;;18.90;63.70;;;;;;5018932;28;20224;-59
2024/04/05 00:31:27;;;;;;;2.67;1.80;;;18.90;63.80;;;;;;5019683;28;20424;-57
2024/04/05 00:33:54;;;;;;;1.70;1.40;;;18.80;64.10;;;;;;5010442;28;20213;-56
2024/04/05 00:36:20;;;;;;;4.10;2.03;;;18.80;64.40;;;;;;5005988;28;20257;-59
2024/04/05 00:38:45;;;;;;;3.03;1.90;;;18.70;64.40;;;;;;5003840;28;20460;-59
2024/04/05 00:41:11;;;;;;;4.60;2.13;;;18.70;65.10;;;;;;5005058;28;20514;-59
2024/04/05 00:43:37;;;;;;;2.37;1.83;;;18.80;64.10;;;;;;5003136;28;20609;-56
2024/04/05 00:46:04;;;;;;;2.77;1.70;;;18.80;63.90;;;;;;5012719;28;20236;-59
2024/04/05 00:48:31;;;;;;;4.53;1.70;;;18.90;64.00;;;;;;5004667;28;20205;-57
2024/04/05 00:50:57;;;;;;;4.80;1.83;;;18.90;63.80;;;;;;5004320;28;20527;-59
2024/04/05 00:53:31;;;;;;;2.07;1.37;;;18.90;63.80;;;;;;5005115;28;20479;-59
2024/04/05 00:55:58;;;;;;;3.10;1.40;;;18.90;64.00;;;;;;5010790;28;20261;-59
2024/04/05 00:58:24;;;;;;;3.83;2.07;;;18.80;64.70;;;;;;5014075;28;20436;-59
2024/04/05 01:00:50;;;;;;;2.97;1.73;;;18.80;64.90;;;;;;5020554;28;20417;-59
2024/04/05 01:03:15;;;;;;;2.83;1.70;;;18.80;64.90;;;;;;5020275;28;20173;-58
2024/04/05 01:05:42;;;;;;;4.33;2.10;;;18.70;65.10;;;;;;5015986;28;20733;-56
2024/04/05 01:08:14;;;;;;;3.23;1.83;;;18.60;65.10;;;;;;5019230;28;20206;-59
2024/04/05 01:10:41;;;;;;;4.00;1.90;;;18.60;65.00;;;;;;5021058;28;20428;-57
2024/04/05 01:13:08;;;;;;;1.63;1.53;;;18.30;65.80;;;;;;5016061;28;20488;-59
2024/04/05 01:15:34;;;;;;;2.13;1.40;;;18.30;66.00;;;;;;5018529;28;20408;-59
2024/04/05 01:18:03;;;;;;;1.83;1.60;;;18.20;66.40;;;;;;5014942;28;20436;-59
2024/04/05 01:20:32;;;;;;;1.97;1.40;;;18.20;66.60;;;;;;5019702;28;20999;-59
2024/04/05 01:23:03;;;;;;;3.30;1.90;;;17.90;67.10;;;;;;5009409;28;20893;-58
2024/04/05 01:25:29;;;;;;;3.83;1.70;;;18.00;67.00;;;;;;5012423;28;20775;-59
2024/04/05 01:27:55;;;;;;;5.27;1.80;;;17.90;67.00;;;;;;5015828;28;21046;-58
2024/04/05 01:30:21;;;;;;;5.43;1.90;;;17.90;67.00;;;;;;5010907;28;20494;-59
2024/04/05 01:32:52;;;;;;;3.37;1.77;;;18.00;67.00;;;;;;5010820;28;20432;-58
2024/04/05 01:35:17;;;;;;;3.80;1.90;;;18.20;66.40;;;;;;5005499;28;20205;-58
2024/04/05 01:37:43;;;;;;;7.13;1.70;;;18.20;66.30;;;;;;5010051;28;20791;-59
2024/04/05 01:40:09;;;;;;;2.57;1.37;;;18.00;66.50;;;;;;5017180;28;20212;-58
2024/04/05 01:42:35;;;;;;;2.63;1.53;;;17.90;67.40;;;;;;5016691;28;20214;-59
2024/04/05 01:45:00;;;;;;;3.77;1.50;;;18.00;68.10;;;;;;5019147;28;20516;-59
2024/04/05 01:47:26;;;;;;;7.17;1.70;;;18.00;68.20;;;;;;5018936;28;20555;-57
2024/04/05 01:49:53;;;;;;;2.40;1.60;;;18.00;67.40;;;;;;5008316;28;20189;-56
2024/04/05 01:52:19;;;;;;;2.80;1.60;;;17.90;68.00;;;;;;5006936;28;20194;-59
2024/04/05 01:54:45;;;;;;;4.00;1.50;;;17.90;67.90;;;;;;5003142;28;20959;-59
2024/04/05 01:57:11;;;;;;;3.73;1.60;;;17.80;67.70;;;;;;5004086;28;20212;-59
2024/04/05 01:59:37;;;;;;;2.97;1.30;;;17.80;67.70;;;;;;5003168;28;20445;-59
2024/04/05 02:02:02;;;;;;;4.10;1.90;;;17.80;67.80;;;;;;5002223;28;20712;-57
2024/04/05 02:04:28;;;;;;;2.00;1.63;;;17.80;67.70;;;;;;5002216;28;20186;-55
2024/04/05 02:06:53;;;;;;;3.83;2.03;;;18.00;67.00;;;;;;5001883;28;20209;-58
2024/04/05 02:09:19;;;;;;;1.77;1.50;;;18.10;66.60;;;;;;5005818;28;20186;-58
2024/04/05 02:11:44;;;;;;;3.40;1.80;;;18.20;65.90;;;;;;5000334;28;20237;-58
2024/04/05 02:14:10;;;;;;;2.17;1.73;;;18.30;65.70;;;;;;5001770;28;20186;-58
2024/04/05 02:16:36;;;;;;;1.80;1.47;;;18.40;65.50;;;;;;5009291;28;20210;-57
2024/04/05 02:19:01;;;;;;;5.63;1.70;;;18.40;65.30;;;;;;5007653;28;20224;-59
2024/04/05 02:21:27;;;;;;;3.03;1.40;;;18.40;65.20;;;;;;5008368;28;20210;-58
2024/04/05 02:23:53;;;;;;;3.20;1.50;;;18.40;65.20;;;;;;5008409;28;20670;-57
2024/04/05 02:26:19;;;;;;;3.60;2.53;;;18.50;65.00;;;;;;5006949;28;20681;-58
2024/04/05 02:28:44;;;;;;;3.03;1.80;;;18.50;64.90;;;;;;5006827;28;20301;-58
2024/04/05 02:31:10;;;;;;;2.13;1.67;;;18.50;64.70;;;;;;5003688;28;20436;-57
2024/04/05 02:33:36;;;;;;;1.60;1.50;;;18.60;64.60;;;;;;5006941;28;20189;-58
2024/04/05 02:36:02;;;;;;;4.23;1.63;;;18.60;64.50;;;;;;5007989;28;20198;-58
2024/04/05 02:38:28;;;;;;;4.20;1.53;;;18.50;64.40;;;;;;5004751;28;20988;-57
2024/04/05 02:40:55;;;;;;;2.43;1.50;;;18.50;64.60;;;;;;5007386;28;20436;-59
2024/04/05 02:43:21;;;;;;;3.13;1.73;;;18.30;64.50;;;;;;5009399;28;20251;-56
2024/04/05 02:45:46;;;;;;;2.17;1.57;;;18.30;65.10;;;;;;5003719;28;20535;-57
2024/04/05 02:48:12;;;;;;;5.13;1.73;;;18.20;65.40;;;;;;5008470;28;20566;-57
2024/04/05 02:50:38;;;;;;;1.60;1.50;;;18.00;66.10;;;;;;5008246;28;20658;-58
2024/04/05 02:53:04;;;;;;;4.50;1.90;;;17.90;66.60;;;;;;5012164;28;20543;-58
2024/04/05 02:55:30;;;;;;;3.10;1.90;;;18.00;66.90;;;;;;5009317;28;20622;-57
2024/04/05 02:57:56;;;;;;;5.37;2.43;;;18.10;66.60;;;;;;5012286;28;20225;-57
2024/04/05 03:00:21;;;;;;;3.10;1.93;;;18.00;67.10;;;;;;5012450;28;20799;-59
2024/04/05 03:02:47;;;;;;;2.70;1.90;;;18.20;67.20;;;;;;5017009;28;20218;-58
2024/04/05 03:05:14;;;;;;;2.63;1.83;;;18.10;67.00;;;;;;5013730;28;20193;-59
2024/04/05 03:07:39;;;;;;;6.00;2.30;;;18.10;67.30;;;;;;5017305;28;20292;-55
2024/04/05 03:10:06;;;;;;;1.93;1.43;;;18.00;67.80;;;;;;5017888;28;20575;-58
2024/04/05 03:12:32;;;;;;;4.67;2.00;;;17.90;68.00;;;;;;5011732;28;20555;-59
2024/04/05 03:14:58;;;;;;;5.70;1.90;;;17.70;68.90;;;;;;5009935;28;20433;-58
2024/04/05 03:17:23;;;;;;;3.53;2.00;;;17.80;68.80;;;;;;5011886;28;20559;-58
2024/04/05 03:19:49;;;;;;;2.70;1.40;;;17.90;68.30;;;;;;5013956;28;20205;-58
2024/04/05 03:22:14;;;;;;;2.57;1.60;;;17.80;67.70;;;;;;5011464;28;20255;-59
2024/04/05 03:24:41;;;;;;;4.03;2.13;;;17.90;67.60;;;;;;5008227;28;20261;-59
2024/04/05 03:27:06;;;;;;;2.83;1.33;;;18.00;67.20;;;;;;5014095;28;20206;-58
2024/04/05 03:29:33;;;;;;;2.37;1.50;;;17.80;67.50;;;;;;5006030;28;20451;-59
2024/04/05 03:31:59;;;;;;;1.93;1.60;;;18.00;67.20;;;;;;5006175;28;20198;-58
2024/04/05 03:34:24;;;;;;;3.00;1.80;;;18.10;66.70;;;;;;5010447;28;20459;-59
2024/04/05 03:36:50;;;;;;;2.10;1.57;;;18.20;66.30;;;;;;5005013;28;20206;-59
2024/04/05 03:39:16;;;;;;;4.13;1.60;;;18.30;66.00;;;;;;5003321;28;20197;-59
2024/04/05 03:41:41;;;;;;;2.47;1.40;;;18.40;65.80;;;;;;5006707;28;20222;-55
2024/04/05 03:44:08;;;;;;;2.40;1.63;;;18.40;65.70;;;;;;5006967;28;20730;-58
2024/04/05 03:46:35;;;;;;;5.00;1.57;;;18.30;65.40;;;;;;5006775;28;20316;-58
2024/04/05 03:49:02;;;;;;;1.80;1.60;;;18.20;65.60;;;;;;5012284;28;20483;-59
2024/04/05 03:51:28;;;;;;;4.60;1.73;;;17.90;66.20;;;;;;5008294;28;20435;-59
2024/04/05 03:53:54;;;;;;;4.10;1.60;;;18.00;66.40;;;;;;5015484;28;20437;-58
2024/04/05 03:56:19;;;;;;;2.90;2.10;;;18.00;66.20;;;;;;5008148;28;20982;-56
2024/04/05 03:58:47;;;;;;;5.37;1.50;;;18.10;66.20;;;;;;5004307;28;20201;-59
2024/04/05 04:01:12;;;;;;;2.87;1.50;;;18.20;65.90;;;;;;5004367;28;20244;-58
2024/04/05 04:03:38;;;;;;;2.70;1.93;;;18.30;65.50;;;;;;5009065;28;20960;-58
2024/04/05 04:06:04;;;;;;;2.43;1.90;;;18.30;65.30;;;;;;5005966;28;20681;-59
2024/04/05 04:08:30;;;;;;;4.83;2.00;;;18.20;65.50;;;;;;5004568;28;20709;-59
2024/04/05 04:10:56;;;;;;;3.23;1.93;;;18.20;65.60;;;;;;5005844;28;20448;-61
2024/04/05 04:13:23;;;;;;;3.00;1.40;;;18.10;65.90;;;;;;5004726;28;20201;-61
2024/04/05 04:15:50;;;;;;;2.03;1.93;;;18.10;65.70;;;;;;5006678;28;20186;-61
2024/04/05 04:18:16;;;;;;;1.97;1.47;;;18.00;65.70;;;;;;5004685;28;20472;-60
2024/04/05 04:20:41;;;;;;;2.83;1.70;;;18.00;66.00;;;;;;5003389;28;20473;-59
2024/04/05 04:23:08;;;;;;;7.10;2.00;;;17.90;66.20;;;;;;5004996;28;21161;-61
2024/04/05 04:25:34;;;;;;;3.50;2.20;;;17.90;66.30;;;;;;5004339;28;20186;-61
2024/04/05 04:28:00;;;;;;;2.57;1.70;;;18.00;66.00;;;;;;5005198;28;20467;-62
2024/04/05 04:30:27;;;;;;;3.77;1.90;;;18.00;66.20;;;;;;5007791;28;20436;-61
2024/04/05 04:32:52;;;;;;;2.80;1.90;;;18.00;66.40;;;;;;5006230;28;20458;-62
2024/04/05 04:35:18;;;;;;;2.43;2.17;;;18.00;66.10;;;;;;5013261;28;20451;-62
2024/04/05 04:37:43;;;;;;;2.50;1.70;;;18.00;66.30;;;;;;5006810;28;20465;-58
2024/04/05 04:40:11;;;;;;;4.50;1.90;;;17.90;66.40;;;;;;5003693;28;20180;-63
2024/04/05 04:42:38;;;;;;;4.77;1.90;;;17.80;66.80;;;;;;5002399;28;20214;-60
2024/04/05 04:45:05;;;;;;;3.70;1.90;;;17.60;67.50;;;;;;5004872;28;20643;-58
2024/04/05 04:47:31;;;;;;;2.20;1.63;;;17.60;68.10;;;;;;5006276;28;20932;-61
2024/04/05 04:49:58;;;;;;;7.20;2.77;;;17.60;67.90;;;;;;5004359;28;20437;-61
2024/04/05 04:52:24;;;;;;;4.73;2.03;;;17.60;68.10;;;;;;5003042;28;20441;-60
2024/04/05 04:54:50;;;;;;;3.27;2.00;;;17.60;68.00;;;;;;5009791;28;20437;-59
2024/04/05 04:57:15;;;;;;;2.90;1.90;;;17.60;68.00;;;;;;5010559;28;20421;-60
2024/04/05 04:59:41;;;;;;;2.63;1.90;;;17.60;68.10;;;;;;5009781;28;20650;-60
2024/04/05 05:02:08;;;;;;;3.17;2.00;;;17.60;68.10;;;;;;5010937;28;20285;-58
2024/04/05 05:04:34;;;;;;;5.83;2.00;;;17.50;68.40;;;;;;5011891;28;20189;-58
2024/04/05 05:07:01;;;;;;;6.70;2.47;;;17.40;68.70;;;;;;5010510;28;20456;-59
2024/04/05 05:09:27;;;;;;;3.73;2.00;;;17.50;68.70;;;;;;5014223;28;20429;-60
2024/04/05 05:11:52;;;;;;;5.77;2.20;;;17.60;68.30;;;;;;5008595;28;20417;-60
2024/04/05 05:14:18;;;;;;;4.03;2.40;;;17.60;68.00;;;;;;5010127;28;20186;-56
2024/04/05 05:16:44;;;;;;;13.03;4.37;;;17.60;68.20;;;;;;5015458;28;20272;-57
2024/04/05 05:19:09;;;;;;;6.60;4.47;;;17.60;68.10;;;;;;5019944;28;20186;-63
2024/04/05 05:21:35;;;;;;;7.20;3.33;;;17.70;67.70;;;;;;5020445;28;20750;-59
2024/04/05 05:24:01;;;;;;;12.50;3.63;;;17.80;67.20;;;;;;5010054;28;20571;-60
2024/04/05 05:26:27;;;;;;;4.87;2.90;;;17.80;67.10;;;;;;5013526;28;20460;-62
2024/04/05 05:28:53;;;;;;;7.00;2.50;;;17.90;66.70;;;;;;5007933;28;20441;-62
2024/04/05 05:31:19;;;;;;;4.50;2.43;;;18.00;67.00;;;;;;5010696;28;20443;-61
2024/04/05 05:33:45;;;;;;;3.90;2.77;;;18.00;66.00;;;;;;5014687;28;20193;-58
2024/04/05 05:36:11;;;;;;;2.20;1.97;;;18.00;65.80;;;;;;5014971;28;20251;-59
2024/04/05 05:38:38;;;;;;;2.70;2.23;;;18.00;66.00;;;;;;5011503;28;20448;-56
2024/04/05 05:41:03;;;;;;;4.60;2.30;;;17.90;65.90;;;;;;5014748;28;20191;-61
2024/04/05 05:43:29;;;;;;;12.30;2.80;;;17.90;66.30;;;;;;5017965;28;20431;-61
2024/04/05 05:45:54;;;;;;;5.67;2.57;;;17.90;66.10;;;;;;5011238;28;20198;-63
2024/04/05 05:48:20;;;;;;;4.37;2.10;;;17.90;67.10;;;;;;5005141;28;20206;-60
2024/04/05 05:50:46;;;;;;;3.10;2.80;;;17.90;66.20;;;;;;5002740;28;20269;-59
2024/04/05 05:53:12;;;;;;;2.60;2.10;;;17.90;66.50;;;;;;5004072;28;20202;-61
2024/04/05 05:55:37;;;;;;;3.93;2.83;;;17.90;66.60;;;;;;5003457;28;20307;-63
2024/04/05 05:58:03;;;;;;;3.90;2.53;;;17.80;66.60;;;;;;5002435;28;20851;-59
2024/04/05 06:00:29;;;;;;;3.53;2.60;;;17.90;66.60;;;;;;5003080;28;20186;-56
2024/04/05 06:02:56;;;;;;;2.63;2.30;;;17.90;66.70;;;;;;5002007;28;20218;-63
2024/04/05 06:05:23;;;;;;;3.00;2.30;;;17.90;66.60;;;;;;5008513;28;20498;-62
2024/04/05 06:07:51;;;;;;;5.87;2.50;;;17.90;66.70;;;;;;5011888;28;20511;-58
2024/04/05 06:10:16;;;;;;;8.80;3.07;;;17.80;67.40;;;;;;5015568;28;20436;-59
2024/04/05 06:12:42;;;;;;;3.40;2.50;;;17.50;68.60;;;;;;5013935;28;20534;-60
2024/04/05 06:15:08;;;;;;;5.23;2.13;;;17.50;69.30;;;;;;5018008;28;20189;-62
2024/04/05 06:17:35;;;;;;;4.20;2.90;;;17.50;70.70;;;;;;5012794;28;20521;-60
2024/04/05 06:20:06;;;;;;;6.17;2.40;;;17.50;69.90;;;;;;5014268;28;20630;-59
2024/04/05 06:22:32;;;;;;;4.90;2.93;;;17.60;69.90;;;;;;5011874;28;20524;-62
2024/04/05 06:24:58;;;;;;;3.20;2.53;;;17.80;69.20;;;;;;5011019;28;20896;-59
2024/04/05 06:27:23;;;;;;;3.37;2.60;;;17.70;69.60;;;;;;5017179;28;20460;-62
2024/04/05 06:29:50;;;;;;;3.50;2.30;;;17.80;69.60;;;;;;5013618;28;20190;-58
2024/04/05 06:32:17;;;;;;;4.43;1.80;;;17.90;69.10;;;;;;5012078;28;20189;-61
2024/04/05 06:34:43;;;;;;;2.40;1.73;;;18.00;68.50;;;;;;5007780;28;20524;-58
2024/04/05 06:37:09;;;;;;;2.93;2.37;;;18.10;68.60;;;;;;5011545;28;20536;-57
2024/04/05 06:39:34;;;;;;;2.30;2.10;;;18.20;68.00;;;;;;5006221;28;20508;-61
2024/04/05 06:42:00;;;;;;;2.03;1.70;;;18.20;68.10;;;;;;5006856;28;20214;-60
2024/04/05 06:44:31;;;;;;;2.97;1.87;;;18.30;67.50;;;;;;5008337;28;20232;-62
2024/04/05 06:47:00;;;;;;;4.27;2.17;;;18.60;67.60;;;;;;5005336;28;20518;-58
2024/04/05 06:49:26;;;;;;;3.33;2.40;;;18.70;66.50;;;;;;5017080;28;20928;-60
2024/04/05 06:51:51;;;;;;;2.50;1.70;;;18.70;66.50;;;;;;5015648;28;20428;-54
2024/04/05 06:54:17;;;;;;;2.67;2.00;;;18.90;66.20;;;;;;5017543;28;20538;-57
2024/04/05 06:56:43;;;;;;;3.10;1.80;;;18.90;65.50;;;;;;5018680;28;20209;-60
2024/04/05 06:59:08;;;;;;;2.57;1.73;;;19.00;65.90;;;;;;5017548;28;20251;-61
2024/04/05 07:01:34;;;;;;;2.57;1.70;;;19.10;64.60;;;;;;5017384;28;20349;-61
2024/04/05 07:04:00;;;;;;;6.37;1.80;;;19.40;64.70;;;;;;5009222;28;20568;-59
2024/04/05 07:06:25;;;;;;;2.60;2.03;;;19.40;63.50;;;;;;5017396;28;20778;-60
2024/04/05 07:08:51;;;;;;;2.03;1.70;;;19.50;63.00;;;;;;5016893;28;20186;-60
2024/04/05 07:11:17;;;;;;;3.53;1.67;;;19.60;63.00;;;;;;5018951;28;20231;-60
2024/04/05 07:13:43;;;;;;;3.10;1.70;;;19.50;62.30;;;;;;5011635;28;20278;-59
2024/04/05 07:16:11;;;;;;;4.27;2.43;;;19.40;62.50;;;;;;5009925;28;20869;-59
2024/04/05 07:18:37;;;;;;;3.50;1.67;;;19.50;62.50;;;;;;5016551;28;20694;-56
2024/04/05 07:21:03;;;;;;;2.73;1.87;;;19.60;63.00;;;;;;5014406;28;20425;-60
2024/04/05 07:23:29;;;;;;;2.87;2.10;;;19.90;62.00;;;;;;5021727;28;20274;-61
2024/04/05 07:25:55;;;;;;;5.97;2.20;;;20.00;60.90;;;;;;5015101;28;20448;-62
2024/04/05 07:28:22;;;;;;;3.90;2.40;;;19.90;60.40;;;;;;5017808;28;20221;-60
2024/04/05 07:30:48;;;;;;;2.63;2.30;;;19.90;61.30;;;;;;5010302;28;20444;-61
2024/04/05 07:33:14;;;;;;;2.80;2.17;;;19.80;61.60;;;;;;5018682;28;20479;-61
2024/04/05 07:35:40;;;;;;;3.07;2.00;;;19.70;60.90;;;;;;5020674;28;20865;-61
2024/04/05 07:38:06;;;;;;;2.60;1.93;;;19.60;61.20;;;;;;5014357;28;20467;-59
2024/04/05 07:40:35;;;;;;;4.50;1.90;;;19.50;61.40;;;;;;5010385;28;20457;-60
2024/04/05 07:43:01;;;;;;;3.07;2.00;;;19.50;60.90;;;;;;5009317;28;20222;-56
2024/04/05 07:45:27;;;;;;;1.90;1.63;;;19.50;61.20;;;;;;5006436;28;20978;-59
2024/04/05 07:47:53;;;;;;;3.07;2.10;;;19.70;61.70;;;;;;5010958;28;20466;-57
2024/04/05 07:50:20;;;;;;;4.90;1.80;;;19.80;61.80;;;;;;5010873;28;20208;-57
2024/04/05 07:52:49;;;;;;;2.53;1.70;;;20.00;60.90;;;;;;5014324;28;20475;-58
2024/04/05 07:55:15;;;;;;;3.10;2.20;;;20.00;61.50;;;;;;5020039;28;20485;-60
2024/04/05 07:57:40;;;;;;;4.20;1.70;;;20.10;60.50;;;;;;5024147;28;20439;-60
2024/04/05 08:00:14;;;;;;;4.00;1.97;;;20.10;60.20;;;;;;5017681;28;20208;-59
2024/04/05 08:02:44;;;;;;;4.47;1.90;;;20.10;59.80;;;;;;5009424;28;20703;-63
2024/04/05 08:05:11;;;;;;;5.03;1.80;;;20.20;60.10;;;;;;5009805;28;20433;-68
2024/04/05 08:07:36;;;;;;;4.47;1.97;;;20.40;59.10;;;;;;5008677;28;20520;-59
2024/04/05 08:10:02;;;;;;;2.93;1.63;;;20.30;58.10;;;;;;5011553;28;20869;-57
2024/04/05 08:12:27;;;;;;;2.53;2.10;;;20.40;59.10;;;;;;5013402;28;20824;-56
2024/04/05 08:14:54;;;;;;;6.33;1.63;;;20.80;59.00;;;;;;5019332;28;20201;-61
2024/04/05 08:17:19;;;;;;;4.43;1.90;;;20.80;57.70;;;;;;5011046;28;20236;-60
2024/04/05 08:19:45;;;;;;;1.90;1.70;;;20.70;58.10;;;;;;5009404;28;20460;-61
2024/04/05 08:22:11;;;;;;;3.23;1.57;;;20.80;57.20;;;;;;5007827;28;20690;-60
2024/04/05 08:24:36;;;;;;;2.80;1.20;;;21.00;56.90;;;;;;5013212;28;20181;-59
2024/04/05 08:27:02;;;;;;;4.70;1.50;;;21.20;55.60;;;;;;5012101;28;20312;-58
2024/04/05 08:29:28;;;;;;;2.47;1.47;;;21.20;55.10;;;;;;5006043;28;20272;-57
2024/04/05 08:31:54;;;;;;;3.30;1.77;;;21.50;54.70;;;;;;5008618;28;21111;-58
2024/04/05 08:34:20;;;;;;;5.20;1.43;;;21.70;54.80;;;;;;5009863;28;20277;-61
2024/04/05 08:36:49;;;;;;;2.73;1.37;;;21.90;54.00;;;;;;5008398;28;20300;-61
2024/04/05 08:39:18;;;;;;;4.40;1.97;;;22.00;53.60;;;;;;5010516;28;20540;-55
2024/04/05 08:41:47;;;;;;;2.20;1.10;;;21.90;53.20;;;;;;5010587;28;20472;-58
2024/04/05 08:44:13;;;;;;;5.67;1.57;;;22.20;52.80;;;;;;5013680;28;20516;-62
2024/04/05 08:46:40;;;;;;;2.60;0.97;;;22.50;51.60;;;;;;5006498;28;20857;-62
2024/04/05 08:49:07;;;;;;;2.23;1.50;;;22.40;50.60;;;;;;5001727;28;20880;-60
2024/04/05 08:51:37;;;;;;;3.63;1.40;;;22.50;50.80;;;;;;5003574;28;20441;-68
2024/04/05 08:54:03;;;;;;;2.00;1.43;;;22.70;50.80;;;;;;5006521;28;20445;-61
2024/04/05 08:56:29;;;;;;;1.30;1.20;;;22.80;50.60;;;;;;5005599;28;21047;-60
2024/04/05 08:58:57;;;;;;;1.87;1.13;;;22.90;51.10;;;;;;5005862;28;20443;-69
2024/04/05 09:01:24;;;;;;;4.63;1.80;;;23.00;49.40;;;;;;5008117;28;20241;-62
2024/04/05 09:03:50;;;;;;;2.90;1.50;;;23.40;49.40;;;;;;5006047;28;22231;-65
2024/04/05 09:06:16;;;;;;;2.50;1.60;;;23.50;47.60;;;;;;5009669;28;20479;-65
2024/04/05 09:08:58;;;;;;;3.53;1.20;;;23.90;47.10;;;;;;5007922;28;20221;-63
2024/04/05 09:11:23;;;;;;;2.17;1.60;;;23.90;45.80;;;;;;5008580;28;20504;-62
2024/04/05 09:13:56;;;;;;;1.57;1.47;;;23.80;46.10;;;;;;4998231;28;20444;-63
2024/04/05 09:16:26;;;;;;;2.63;1.40;;;24.10;45.70;;;;;;5007559;28;20230;-65
2024/04/05 09:19:01;;;;;;;1.30;1.20;;;24.20;44.90;;;;;;5007081;28;20952;-65
2024/04/05 09:21:27;;;;;;;1.47;1.10;;;24.10;45.10;;;;;;5005534;28;20570;-63
2024/04/05 09:23:53;;;;;;;1.37;0.97;;;24.40;44.90;;;;;;5011448;28;20508;-61
2024/04/05 09:26:19;;;;;;;1.63;1.33;;;24.60;44.10;;;;;;5011468;28;20186;-62
2024/04/05 09:28:57;;;;;;;1.87;1.23;;;24.80;43.70;;;;;;5008802;28;20197;-60
2024/04/05 09:31:23;;;;;;;2.27;1.20;;;24.90;44.00;;;;;;5009881;28;20518;-65
2024/04/05 09:33:49;;;;;;;1.90;1.40;;;25.20;43.50;;;;;;5009633;28;20441;-63
2024/04/05 09:36:17;;;;;;;2.40;1.30;;;25.30;42.50;;;;;;5010045;28;20852;-59
2024/04/05 09:38:44;;;;;;;2.63;1.43;;;25.30;42.90;;;;;;5007342;28;20459;-62
2024/04/05 09:41:13;;;;;;;3.80;1.53;;;25.30;42.80;;;;;;5006014;28;20446;-66
2024/04/05 09:43:40;;;;;;;2.77;1.37;;;25.40;43.60;;;;;;5013986;28;20958;-63
2024/04/05 09:46:08;;;;;;;2.37;1.30;;;25.70;43.60;;;;;;5009786;28;20469;-61
2024/04/05 09:48:34;;;;;;;2.93;1.53;;;25.90;43.60;;;;;;5010018;28;20423;-61
2024/04/05 09:51:05;;;;;;;2.97;1.30;;;26.10;43.30;;;;;;5009482;28;20433;-62
2024/04/05 09:53:33;;;;;;;3.20;1.50;;;26.20;42.60;;;;;;5007145;28;20528;-65
2024/04/05 09:56:05;;;;;;;2.50;1.20;;;26.30;42.50;;;;;;5007003;28;20764;-62
2024/04/05 09:58:32;;;;;;;1.83;1.37;;;26.30;41.90;;;;;;5006509;28;20576;-61
2024/04/05 10:01:06;;;;;;;2.73;1.33;;;26.40;42.00;;;;;;5009270;28;20513;-63
2024/04/05 10:03:32;;;;;;;6.40;1.30;;;26.60;41.90;;;;;;5009389;28;20421;-61
2024/04/05 10:06:16;;;;;;;1.30;1.20;;;26.70;40.90;;;;;;5014851;28;20429;-64
2024/04/05 10:08:42;;;;;;;1.67;1.30;;;26.60;39.80;;;;;;5009543;28;20528;-61
2024/04/05 10:11:12;;;;;;;1.60;1.30;;;26.60;40.10;;;;;;5009163;28;20437;-60
2024/04/05 10:13:38;;;;;;;1.67;1.10;;;26.80;42.20;;;;;;5007843;28;20875;-63
2024/04/05 10:16:04;;;;;;;2.87;1.40;;;27.00;40.30;;;;;;5009519;28;20437;-60
2024/04/05 10:18:36;;;;;;;8.33;2.13;;;27.10;40.00;;;;;;5009556;28;20784;-60
2024/04/05 10:21:03;;;;;;;2.20;1.27;;;27.40;40.10;;;;;;5009051;28;20475;-61
2024/04/05 10:23:29;;;;;;;2.20;1.20;;;27.30;40.60;;;;;;5009352;28;20464;-60
2024/04/05 10:25:55;;;;;;;4.80;1.57;;;27.30;40.30;;;;;;5009511;28;20435;-65
2024/04/05 10:28:23;;;;;;;1.70;1.23;;;27.50;39.80;;;;;;5008834;28;20839;-61
2024/04/05 10:30:49;;;;;;;2.17;1.60;;;27.20;39.40;;;;;;5009017;28;20257;-63
2024/04/05 10:33:21;;;;;;;1.90;1.60;;;27.30;38.70;;;;;;5007268;28;20441;-65
2024/04/05 10:35:50;;;;;;;2.30;1.30;;;27.50;38.30;;;;;;5008201;28;20448;-63
2024/04/05 10:38:17;;;;;;;1.43;1.20;;;27.60;38.40;;;;;;5008021;28;20441;-62
2024/04/05 10:40:44;;;;;;;2.97;1.40;;;27.60;38.30;;;;;;5008837;28;20440;-63
2024/04/05 10:43:11;;;;;;;1.40;1.30;;;28.00;37.50;;;;;;5007899;28;20515;-65
2024/04/05 10:45:41;;;;;;;1.57;1.30;;;27.90;36.70;;;;;;5008226;28;20524;-66
2024/04/05 10:48:09;;;;;;;2.10;1.43;;;28.10;36.20;;;;;;5013561;28;20483;-60
2024/04/05 10:50:39;;;;;;;1.47;1.20;;;28.10;35.50;;;;;;5012510;28;20429;-61
2024/04/05 10:53:05;;;;;;;1.87;1.00;;;28.00;34.60;;;;;;5003032;28;20448;-70
2024/04/05 10:55:31;;;;;;;2.80;1.07;;;28.20;35.10;;;;;;5007436;28;20543;-65
2024/04/05 10:58:01;;;;;;;1.20;1.10;;;27.70;35.30;;;;;;5007617;28;20465;-63
2024/04/05 11:00:27;;;;;;;1.10;1.00;;;27.80;35.80;;;;;;5008731;28;20424;-63
2024/04/05 11:02:54;;;;;;;4.20;1.10;;;28.00;35.10;;;;;;5008395;28;20483;-64
2024/04/05 11:05:20;;;;;;;3.13;1.13;;;28.00;34.50;;;;;;5007298;28;20432;-65
2024/04/05 11:07:56;;;;;;;2.40;1.20;;;27.90;34.20;;;;;;5007525;28;20460;-69
2024/04/05 11:10:21;;;;;;;4.40;1.10;;;27.70;34.60;;;;;;5004009;28;20448;-66
2024/04/05 11:12:48;;;;;;;2.10;1.40;;;27.70;35.30;;;;;;5007643;28;20491;-62
2024/04/05 11:15:21;;;;;;;1.07;0.97;;;27.70;35.10;;;;;;5008650;28;20259;-62
2024/04/05 11:17:58;;;;;;;2.03;1.13;;;27.60;34.40;;;;;;5000142;28;20762;-62
2024/04/05 11:20:26;;;;;;;1.10;1.00;;;27.40;35.40;;;;;;5003373;28;20437;-63
2024/04/05 11:22:55;;;;;;;3.63;1.27;;;27.50;35.80;;;;;;5011423;28;20586;-66
2024/04/05 11:25:21;;;;;;;1.73;1.10;;;27.80;35.10;;;;;;5004253;28;20452;-63
2024/04/05 11:27:48;;;;;;;3.60;1.17;;;27.90;34.30;;;;;;5010665;28;20444;-65
2024/04/05 11:30:14;;;;;;;1.00;0.90;;;27.90;34.60;;;;;;5011999;28;20791;-62
2024/04/05 11:32:41;;;;;;;1.87;1.40;;;27.70;33.50;;;;;;5012573;28;20198;-68
2024/04/05 11:35:09;;;;;;;1.67;1.00;;;27.70;34.00;;;;;;5012892;28;20425;-62
2024/04/05 11:37:35;;;;;;;1.33;1.00;;;27.70;34.60;;;;;;5016343;28;20896;-62
2024/04/05 11:40:00;;;;;;;1.93;1.30;;;27.60;34.30;;;;;;5010923;28;20535;-62
2024/04/05 11:42:26;;;;;;;4.03;1.20;;;27.30;33.80;;;;;;5012251;28;20468;-65
2024/04/05 11:44:53;;;;;;;1.10;0.90;;;27.40;34.30;;;;;;5008625;28;20214;-63
2024/04/05 11:47:21;;;;;;;1.57;0.93;;;27.10;33.90;;;;;;5008961;28;20221;-68
2024/04/05 11:49:50;;;;;;;3.20;1.20;;;27.00;33.80;;;;;;5010503;28;20443;-62
2024/04/05 11:52:15;;;;;;;1.13;1.03;;;27.00;36.20;;;;;;5011288;28;20611;-63
2024/04/05 11:54:43;;;;;;;1.90;0.90;;;26.70;33.50;;;;;;5013397;28;20523;-61
2024/04/05 11:57:14;;;;;;;1.43;1.00;;;26.50;33.30;;;;;;5011297;28;20575;-61
2024/04/05 11:59:48;;;;;;;2.20;1.00;;;26.40;33.90;;;;;;5009213;28;20532;-65
2024/04/05 12:02:14;;;;;;;3.10;1.27;;;26.40;33.80;;;;;;5010483;28;20479;-65
2024/04/05 12:04:39;;;;;;;4.40;1.00;;;26.20;34.20;;;;;;5007665;28;20906;-65
2024/04/05 12:07:09;;;;;;;1.73;0.90;;;26.30;35.00;;;;;;5011283;28;21185;-63
2024/04/05 12:09:36;;;;;;;1.00;0.80;;;26.40;34.60;;;;;;5010023;28;20194;-62
2024/04/05 12:12:02;;;;;;;1.63;1.00;;;26.30;34.50;;;;;;5010309;28;21079;-60
2024/04/05 12:14:29;;;;;;;2.67;1.37;;;26.10;34.70;;;;;;5013071;28;20443;-67
2024/04/05 12:16:54;;;;;;;1.20;0.97;;;26.10;35.00;;;;;;5006707;28;20646;-62
2024/04/05 12:19:20;;;;;;;2.60;1.00;;;25.70;35.50;;;;;;5017759;28;20940;-63
2024/04/05 12:21:45;;;;;;;1.50;1.40;;;25.90;36.00;;;;;;5012579;28;20685;-60
2024/04/05 12:24:11;;;;;;;2.00;1.03;;;25.70;35.40;;;;;;5007615;28;20654;-65
2024/04/05 12:26:37;;;;;;;1.80;0.70;;;25.80;36.30;;;;;;5006088;28;20690;-62
2024/04/05 12:29:02;;;;;;;1.83;1.30;;;25.70;35.60;;;;;;5002713;28;20202;-64
2024/04/05 12:31:28;;;;;;;1.60;0.90;;;25.50;35.90;;;;;;5008729;28;20205;-65
2024/04/05 12:33:54;;;;;;;1.23;1.13;;;25.40;36.50;;;;;;5010877;28;20276;-61
2024/04/05 12:36:20;;;;;;;1.60;1.20;;;25.50;36.70;;;;;;5011770;28;20601;-62
2024/04/05 12:38:46;;;;;;;1.83;1.13;;;25.70;36.90;;;;;;5013544;28;20225;-60
2024/04/05 12:41:17;;;;;;;2.97;1.40;;;25.60;37.10;;;;;;5020106;28;20425;-63
2024/04/05 12:43:42;;;;;;;1.87;1.30;;;25.80;37.00;;;;;;5007966;28;20454;-64